sensor_id;sensor_type;location;lat;lon;timestamp;temperature;humidity
26164;DHT22;13914;48.178;11.716;2023-03-01T00:00:38;1.30;90.00
26164;DHT22;13914;48.178;11.716;2023-03-01T00:03:04;1.30;90.00
26164;DHT22;13914;48.178;11.716;2023-03-01T00:05:30;1.30;90.00
26164;DHT22;13914;48.178;11.716;2023-03-01T00:07:57;1.30;89.90
26164;DHT22;13914;48.178;11.716;2023-03-01T00:10:24;1.30;90.00
26164;DHT22;13914;48.178;11.716;2023-03-01T00:12:49;1.30;90.00
26164;DHT22;13914;48.178;11.716;2023-03-01T00:15:15;1.30;90.00
26164;DHT22;13914;48.178;11.716;2023-03-01T00:17:41;1.30;90.00
26164;DHT22;13914;48.178;11.716;2023-03-01T00:20:07;1.30;90.00
26164;DHT22;13914;48.178;11.716;2023-03-01T00:22:36;1.30;90.00
26164;DHT22;13914;48.178;11.716;2023-03-01T00:25:03;1.30;90.00
26164;DHT22;13914;48.178;11.716;2023-03-01T00:27:29;1.30;90.00
26164;DHT22;13914;48.178;11.716;2023-03-01T00:29:55;1.30;90.00
26164;DHT22;13914;48.178;11.716;2023-03-01T00:32:21;1.30;90.00
26164;DHT22;13914;48.178;11.716;2023-03-01T00:34:46;1.30;90.00
26164;DHT22;13914;48.178;11.716;2023-03-01T00:37:20;1.20;90.00
26164;DHT22;13914;48.178;11.716;2023-03-01T00:39:47;1.30;90.00
26164;DHT22;13914;48.178;11.716;2023-03-01T00:42:13;1.30;90.00
26164;DHT22;13914;48.178;11.716;2023-03-01T00:44:39;1.30;90.00
26164;DHT22;13914;48.178;11.716;2023-03-01T00:47:05;1.20;90.00
26164;DHT22;13914;48.178;11.716;2023-03-01T00:49:31;1.20;90.00
26164;DHT22;13914;48.178;11.716;2023-03-01T00:51:56;1.20;90.00
26164;DHT22;13914;48.178;11.716;2023-03-01T00:54:22;1.20;90.00
26164;DHT22;13914;48.178;11.716;2023-03-01T00:56:48;1.20;90.00
26164;DHT22;13914;48.178;11.716;2023-03-01T00:59:14;1.20;90.00
26164;DHT22;13914;48.178;11.716;2023-03-01T01:01:39;1.20;90.00
26164;DHT22;13914;48.178;11.716;2023-03-01T01:04:08;1.20;90.00
26164;DHT22;13914;48.178;11.716;2023-03-01T01:06:38;1.20;90.00
26164;DHT22;13914;48.178;11.716;2023-03-01T01:09:06;1.20;90.00
26164;DHT22;13914;48.178;11.716;2023-03-01T01:11:33;1.20;90.00
26164;DHT22;13914;48.178;11.716;2023-03-01T01:14:00;1.20;90.00
26164;DHT22;13914;48.178;11.716;2023-03-01T01:16:27;1.20;90.10
26164;DHT22;13914;48.178;11.716;2023-03-01T01:18:55;1.20;90.00
26164;DHT22;13914;48.178;11.716;2023-03-01T01:21:23;1.20;90.00
26164;DHT22;13914;48.178;11.716;2023-03-01T01:23:50;1.20;90.10
26164;DHT22;13914;48.178;11.716;2023-03-01T01:26:22;1.20;90.10
26164;DHT22;13914;48.178;11.716;2023-03-01T01:28:51;1.20;90.10
26164;DHT22;13914;48.178;11.716;2023-03-01T01:31:17;1.20;90.00
26164;DHT22;13914;48.178;11.716;2023-03-01T01:33:43;1.20;90.10
26164;DHT22;13914;48.178;11.716;2023-03-01T01:36:10;1.20;90.10
26164;DHT22;13914;48.178;11.716;2023-03-01T01:38:37;1.20;90.10
26164;DHT22;13914;48.178;11.716;2023-03-01T01:41:04;1.20;90.00
26164;DHT22;13914;48.178;11.716;2023-03-01T01:43:34;1.10;90.00
26164;DHT22;13914;48.178;11.716;2023-03-01T01:49:00;1.10;90.00
26164;DHT22;13914;48.178;11.716;2023-03-01T01:51:40;1.10;90.10
26164;DHT22;13914;48.178;11.716;2023-03-01T01:54:12;1.10;90.10
26164;DHT22;13914;48.178;11.716;2023-03-01T01:56:55;1.10;90.00
26164;DHT22;13914;48.178;11.716;2023-03-01T01:59:24;1.10;90.00
26164;DHT22;13914;48.178;11.716;2023-03-01T02:01:51;1.20;90.10
26164;DHT22;13914;48.178;11.716;2023-03-01T02:04:18;1.10;90.10
26164;DHT22;13914;48.178;11.716;2023-03-01T02:06:52;1.10;90.10
26164;DHT22;13914;48.178;11.716;2023-03-01T02:09:25;1.10;90.10
26164;DHT22;13914;48.178;11.716;2023-03-01T02:11:52;1.10;90.10
26164;DHT22;13914;48.178;11.716;2023-03-01T02:14:19;1.10;90.10
26164;DHT22;13914;48.178;11.716;2023-03-01T02:16:45;1.10;90.10
26164;DHT22;13914;48.178;11.716;2023-03-01T02:19:55;1.10;90.10
26164;DHT22;13914;48.178;11.716;2023-03-01T02:22:34;1.10;90.10
26164;DHT22;13914;48.178;11.716;2023-03-01T02:30:31;1.10;90.00
26164;DHT22;13914;48.178;11.716;2023-03-01T02:32:59;1.10;90.10
26164;DHT22;13914;48.178;11.716;2023-03-01T02:35:30;1.10;90.10
26164;DHT22;13914;48.178;11.716;2023-03-01T02:38:00;1.10;90.10
26164;DHT22;13914;48.178;11.716;2023-03-01T02:40:29;1.10;90.10
26164;DHT22;13914;48.178;11.716;2023-03-01T02:42:58;1.00;90.10
26164;DHT22;13914;48.178;11.716;2023-03-01T02:45:25;1.00;90.10
26164;DHT22;13914;48.178;11.716;2023-03-01T02:47:55;1.00;90.50
26164;DHT22;13914;48.178;11.716;2023-03-01T02:55:42;1.00;90.40
26164;DHT22;13914;48.178;11.716;2023-03-01T02:58:08;1.00;90.00
26164;DHT22;13914;48.178;11.716;2023-03-01T03:00:37;1.00;90.00
26164;DHT22;13914;48.178;11.716;2023-03-01T03:03:06;1.00;90.00
26164;DHT22;13914;48.178;11.716;2023-03-01T03:05:33;1.00;90.00
26164;DHT22;13914;48.178;11.716;2023-03-01T03:08:01;1.00;90.00
26164;DHT22;13914;48.178;11.716;2023-03-01T03:10:30;1.00;89.80
26164;DHT22;13914;48.178;11.716;2023-03-01T03:13:03;1.00;89.80
26164;DHT22;13914;48.178;11.716;2023-03-01T03:15:34;1.00;89.90
26164;DHT22;13914;48.178;11.716;2023-03-01T03:18:02;1.00;89.80
26164;DHT22;13914;48.178;11.716;2023-03-01T03:20:30;1.00;89.80
26164;DHT22;13914;48.178;11.716;2023-03-01T03:22:57;1.00;89.90
26164;DHT22;13914;48.178;11.716;2023-03-01T03:25:28;0.90;89.90
26164;DHT22;13914;48.178;11.716;2023-03-01T03:27:55;0.90;90.00
26164;DHT22;13914;48.178;11.716;2023-03-01T03:30:27;0.90;89.80
26164;DHT22;13914;48.178;11.716;2023-03-01T03:32:55;1.00;89.80
26164;DHT22;13914;48.178;11.716;2023-03-01T03:35:28;0.90;89.50
26164;DHT22;13914;48.178;11.716;2023-03-01T03:37:56;0.90;89.90
26164;DHT22;13914;48.178;11.716;2023-03-01T03:40:30;0.90;89.80
26164;DHT22;13914;48.178;11.716;2023-03-01T03:42:56;0.90;89.90
26164;DHT22;13914;48.178;11.716;2023-03-01T03:45:22;0.90;89.80
26164;DHT22;13914;48.178;11.716;2023-03-01T03:47:48;0.90;89.90
26164;DHT22;13914;48.178;11.716;2023-03-01T03:50:15;0.90;89.90
26164;DHT22;13914;48.178;11.716;2023-03-01T03:52:42;0.90;89.80
26164;DHT22;13914;48.178;11.716;2023-03-01T03:55:10;0.90;89.70
26164;DHT22;13914;48.178;11.716;2023-03-01T03:57:38;0.90;89.70
26164;DHT22;13914;48.178;11.716;2023-03-01T04:00:06;0.90;89.50
26164;DHT22;13914;48.178;11.716;2023-03-01T04:02:45;0.90;89.50
26164;DHT22;13914;48.178;11.716;2023-03-01T04:05:13;0.90;89.50
26164;DHT22;13914;48.178;11.716;2023-03-01T04:07:41;0.90;89.60
26164;DHT22;13914;48.178;11.716;2023-03-01T04:10:17;0.80;89.50
26164;DHT22;13914;48.178;11.716;2023-03-01T04:12:43;0.80;89.60
26164;DHT22;13914;48.178;11.716;2023-03-01T04:15:10;0.90;89.70
26164;DHT22;13914;48.178;11.716;2023-03-01T04:17:44;0.80;89.70
26164;DHT22;13914;48.178;11.716;2023-03-01T04:20:16;0.80;89.70
26164;DHT22;13914;48.178;11.716;2023-03-01T04:22:44;0.80;89.70
26164;DHT22;13914;48.178;11.716;2023-03-01T04:25:13;0.80;89.90
26164;DHT22;13914;48.178;11.716;2023-03-01T04:27:40;0.80;89.90
26164;DHT22;13914;48.178;11.716;2023-03-01T04:30:07;0.80;89.90
26164;DHT22;13914;48.178;11.716;2023-03-01T04:32:33;0.70;89.80
26164;DHT22;13914;48.178;11.716;2023-03-01T04:34:59;0.70;89.80
26164;DHT22;13914;48.178;11.716;2023-03-01T04:37:26;0.70;89.80
26164;DHT22;13914;48.178;11.716;2023-03-01T04:39:51;0.70;89.80
26164;DHT22;13914;48.178;11.716;2023-03-01T04:42:18;0.70;89.90
26164;DHT22;13914;48.178;11.716;2023-03-01T04:44:45;0.70;89.60
26164;DHT22;13914;48.178;11.716;2023-03-01T04:47:12;0.70;89.80
26164;DHT22;13914;48.178;11.716;2023-03-01T04:49:38;0.60;89.60
26164;DHT22;13914;48.178;11.716;2023-03-01T04:52:04;0.70;89.70
26164;DHT22;13914;48.178;11.716;2023-03-01T04:54:32;0.60;89.90
26164;DHT22;13914;48.178;11.716;2023-03-01T04:57:00;0.60;90.00
26164;DHT22;13914;48.178;11.716;2023-03-01T04:59:26;0.60;89.90
26164;DHT22;13914;48.178;11.716;2023-03-01T05:01:54;0.60;89.60
26164;DHT22;13914;48.178;11.716;2023-03-01T05:04:21;0.60;89.60
26164;DHT22;13914;48.178;11.716;2023-03-01T05:06:50;0.60;89.70
26164;DHT22;13914;48.178;11.716;2023-03-01T05:09:18;0.60;89.90
26164;DHT22;13914;48.178;11.716;2023-03-01T05:11:44;0.60;89.90
26164;DHT22;13914;48.178;11.716;2023-03-01T05:14:12;0.60;89.90
26164;DHT22;13914;48.178;11.716;2023-03-01T05:16:37;0.60;89.90
26164;DHT22;13914;48.178;11.716;2023-03-01T05:19:04;0.60;89.80
26164;DHT22;13914;48.178;11.716;2023-03-01T05:21:38;0.60;89.80
26164;DHT22;13914;48.178;11.716;2023-03-01T05:24:27;0.50;89.70
26164;DHT22;13914;48.178;11.716;2023-03-01T05:26:54;0.50;89.70
26164;DHT22;13914;48.178;11.716;2023-03-01T05:29:22;0.50;89.80
26164;DHT22;13914;48.178;11.716;2023-03-01T05:31:57;0.50;89.70
26164;DHT22;13914;48.178;11.716;2023-03-01T05:34:30;0.50;89.80
26164;DHT22;13914;48.178;11.716;2023-03-01T05:36:57;0.50;89.80
26164;DHT22;13914;48.178;11.716;2023-03-01T05:39:25;0.40;89.80
26164;DHT22;13914;48.178;11.716;2023-03-01T05:41:53;0.40;89.70
26164;DHT22;13914;48.178;11.716;2023-03-01T05:44:20;0.40;89.80
26164;DHT22;13914;48.178;11.716;2023-03-01T05:46:46;0.40;90.00
26164;DHT22;13914;48.178;11.716;2023-03-01T05:49:13;0.40;89.80
26164;DHT22;13914;48.178;11.716;2023-03-01T05:51:40;0.30;89.80
26164;DHT22;13914;48.178;11.716;2023-03-01T05:54:07;0.40;89.90
26164;DHT22;13914;48.178;11.716;2023-03-01T05:56:34;0.40;89.80
26164;DHT22;13914;48.178;11.716;2023-03-01T05:59:02;0.30;89.80
26164;DHT22;13914;48.178;11.716;2023-03-01T06:01:30;0.30;89.80
26164;DHT22;13914;48.178;11.716;2023-03-01T06:03:57;0.30;89.80
26164;DHT22;13914;48.178;11.716;2023-03-01T06:06:23;0.30;89.90
26164;DHT22;13914;48.178;11.716;2023-03-01T06:08:50;0.30;90.00
26164;DHT22;13914;48.178;11.716;2023-03-01T06:11:16;0.30;90.00
26164;DHT22;13914;48.178;11.716;2023-03-01T06:13:43;0.30;90.00
26164;DHT22;13914;48.178;11.716;2023-03-01T06:16:10;0.30;90.00
26164;DHT22;13914;48.178;11.716;2023-03-01T06:18:37;0.20;90.00
26164;DHT22;13914;48.178;11.716;2023-03-01T06:21:04;0.20;90.00
26164;DHT22;13914;48.178;11.716;2023-03-01T06:23:31;0.20;89.90
26164;DHT22;13914;48.178;11.716;2023-03-01T06:25:57;0.20;90.00
26164;DHT22;13914;48.178;11.716;2023-03-01T06:28:23;0.20;90.00
26164;DHT22;13914;48.178;11.716;2023-03-01T06:30:50;0.20;90.00
26164;DHT22;13914;48.178;11.716;2023-03-01T06:33:17;0.20;90.10
26164;DHT22;13914;48.178;11.716;2023-03-01T06:35:46;0.20;89.80
26164;DHT22;13914;48.178;11.716;2023-03-01T06:38:12;0.20;90.00
26164;DHT22;13914;48.178;11.716;2023-03-01T06:40:40;0.20;90.00
26164;DHT22;13914;48.178;11.716;2023-03-01T06:43:07;0.20;89.90
26164;DHT22;13914;48.178;11.716;2023-03-01T06:45:33;0.10;90.00
26164;DHT22;13914;48.178;11.716;2023-03-01T06:48:06;0.20;90.00
26164;DHT22;13914;48.178;11.716;2023-03-01T06:50:33;0.20;90.00
26164;DHT22;13914;48.178;11.716;2023-03-01T06:53:00;0.20;89.90
26164;DHT22;13914;48.178;11.716;2023-03-01T06:55:26;0.20;90.00
26164;DHT22;13914;48.178;11.716;2023-03-01T06:57:58;0.20;90.00
26164;DHT22;13914;48.178;11.716;2023-03-01T07:00:26;0.10;89.90
26164;DHT22;13914;48.178;11.716;2023-03-01T07:02:53;0.10;90.00
26164;DHT22;13914;48.178;11.716;2023-03-01T07:05:19;0.20;90.10
26164;DHT22;13914;48.178;11.716;2023-03-01T07:07:45;0.20;90.00
26164;DHT22;13914;48.178;11.716;2023-03-01T07:10:11;0.20;90.10
26164;DHT22;13914;48.178;11.716;2023-03-01T07:12:37;0.20;90.10
26164;DHT22;13914;48.178;11.716;2023-03-01T07:15:03;0.10;90.10
26164;DHT22;13914;48.178;11.716;2023-03-01T07:17:29;0.10;90.00
26164;DHT22;13914;48.178;11.716;2023-03-01T07:19:56;0.20;90.10
26164;DHT22;13914;48.178;11.716;2023-03-01T07:22:22;0.20;90.10
26164;DHT22;13914;48.178;11.716;2023-03-01T07:24:48;0.20;90.10
26164;DHT22;13914;48.178;11.716;2023-03-01T07:27:14;0.20;90.10
26164;DHT22;13914;48.178;11.716;2023-03-01T07:29:39;0.20;90.10
26164;DHT22;13914;48.178;11.716;2023-03-01T07:32:06;0.20;90.10
26164;DHT22;13914;48.178;11.716;2023-03-01T07:34:32;0.20;90.10
26164;DHT22;13914;48.178;11.716;2023-03-01T07:36:58;0.30;90.10
26164;DHT22;13914;48.178;11.716;2023-03-01T07:39:24;0.30;90.10
26164;DHT22;13914;48.178;11.716;2023-03-01T07:41:51;0.30;90.50
26164;DHT22;13914;48.178;11.716;2023-03-01T07:44:16;0.30;90.10
26164;DHT22;13914;48.178;11.716;2023-03-01T07:46:42;0.30;90.00
26164;DHT22;13914;48.178;11.716;2023-03-01T07:49:09;0.30;90.00
26164;DHT22;13914;48.178;11.716;2023-03-01T07:51:35;0.30;90.00
26164;DHT22;13914;48.178;11.716;2023-03-01T07:54:00;0.40;90.00
26164;DHT22;13914;48.178;11.716;2023-03-01T07:56:26;0.40;90.00
26164;DHT22;13914;48.178;11.716;2023-03-01T07:58:52;0.40;90.00
26164;DHT22;13914;48.178;11.716;2023-03-01T08:01:19;0.40;89.90
26164;DHT22;13914;48.178;11.716;2023-03-01T08:03:47;0.50;89.90
26164;DHT22;13914;48.178;11.716;2023-03-01T08:06:13;0.50;89.40
26164;DHT22;13914;48.178;11.716;2023-03-01T08:08:40;0.50;89.40
26164;DHT22;13914;48.178;11.716;2023-03-01T08:11:09;0.50;89.70
26164;DHT22;13914;48.178;11.716;2023-03-01T08:13:36;0.50;89.80
26164;DHT22;13914;48.178;11.716;2023-03-01T08:16:03;0.60;89.90
26164;DHT22;13914;48.178;11.716;2023-03-01T08:18:34;0.60;89.90
26164;DHT22;13914;48.178;11.716;2023-03-01T08:21:08;0.60;89.60
26164;DHT22;13914;48.178;11.716;2023-03-01T08:23:35;0.60;89.80
26164;DHT22;13914;48.178;11.716;2023-03-01T08:26:13;0.70;89.80
26164;DHT22;13914;48.178;11.716;2023-03-01T08:28:40;0.60;89.70
26164;DHT22;13914;48.178;11.716;2023-03-01T08:33:52;0.70;90.30
26164;DHT22;13914;48.178;11.716;2023-03-01T08:36:30;0.70;89.80
26164;DHT22;13914;48.178;11.716;2023-03-01T08:38:57;0.70;89.90
26164;DHT22;13914;48.178;11.716;2023-03-01T08:41:24;0.80;90.00
26164;DHT22;13914;48.178;11.716;2023-03-01T08:43:50;0.80;89.90
26164;DHT22;13914;48.178;11.716;2023-03-01T08:46:15;0.80;89.80
26164;DHT22;13914;48.178;11.716;2023-03-01T08:48:41;0.80;89.90
26164;DHT22;13914;48.178;11.716;2023-03-01T08:51:12;0.90;89.80
26164;DHT22;13914;48.178;11.716;2023-03-01T08:53:40;0.90;89.80
26164;DHT22;13914;48.178;11.716;2023-03-01T08:56:06;0.90;89.90
26164;DHT22;13914;48.178;11.716;2023-03-01T08:58:32;0.90;89.80
26164;DHT22;13914;48.178;11.716;2023-03-01T09:00:58;1.00;90.00
26164;DHT22;13914;48.178;11.716;2023-03-01T09:03:25;1.00;89.90
26164;DHT22;13914;48.178;11.716;2023-03-01T09:05:51;1.00;90.00
26164;DHT22;13914;48.178;11.716;2023-03-01T09:08:18;1.00;89.80
26164;DHT22;13914;48.178;11.716;2023-03-01T09:10:45;1.10;90.00
26164;DHT22;13914;48.178;11.716;2023-03-01T09:13:11;1.10;90.00
26164;DHT22;13914;48.178;11.716;2023-03-01T09:15:38;1.10;90.00
26164;DHT22;13914;48.178;11.716;2023-03-01T09:18:04;1.20;90.00
26164;DHT22;13914;48.178;11.716;2023-03-01T09:20:31;1.20;90.10
26164;DHT22;13914;48.178;11.716;2023-03-01T09:22:57;1.20;90.10
26164;DHT22;13914;48.178;11.716;2023-03-01T09:25:23;1.20;90.20
26164;DHT22;13914;48.178;11.716;2023-03-01T09:27:53;1.30;90.20
26164;DHT22;13914;48.178;11.716;2023-03-01T09:30:19;1.30;90.00
26164;DHT22;13914;48.178;11.716;2023-03-01T09:32:46;1.30;90.00
26164;DHT22;13914;48.178;11.716;2023-03-01T09:35:12;1.40;89.90
26164;DHT22;13914;48.178;11.716;2023-03-01T09:37:38;1.40;90.10
26164;DHT22;13914;48.178;11.716;2023-03-01T09:40:15;1.40;90.00
26164;DHT22;13914;48.178;11.716;2023-03-01T09:42:59;1.50;90.10
26164;DHT22;13914;48.178;11.716;2023-03-01T09:45:35;1.50;90.10
26164;DHT22;13914;48.178;11.716;2023-03-01T09:48:06;1.60;90.20
26164;DHT22;13914;48.178;11.716;2023-03-01T09:50:41;1.60;90.10
26164;DHT22;13914;48.178;11.716;2023-03-01T09:53:17;1.60;90.00
26164;DHT22;13914;48.178;11.716;2023-03-01T09:56:16;1.60;90.00
26164;DHT22;13914;48.178;11.716;2023-03-01T10:01:57;1.80;90.10
26164;DHT22;13914;48.178;11.716;2023-03-01T10:09:40;1.90;90.20
26164;DHT22;13914;48.178;11.716;2023-03-01T10:12:16;2.00;90.10
26164;DHT22;13914;48.178;11.716;2023-03-01T10:14:54;2.00;90.20
26164;DHT22;13914;48.178;11.716;2023-03-01T10:17:46;2.10;90.20
26164;DHT22;13914;48.178;11.716;2023-03-01T10:20:25;2.20;90.10
26164;DHT22;13914;48.178;11.716;2023-03-01T10:22:54;2.20;90.00
26164;DHT22;13914;48.178;11.716;2023-03-01T10:31:45;2.40;89.10
26164;DHT22;13914;48.178;11.716;2023-03-01T10:34:21;2.50;89.80
26164;DHT22;13914;48.178;11.716;2023-03-01T10:36:56;2.60;90.00
26164;DHT22;13914;48.178;11.716;2023-03-01T10:39:58;2.60;88.90
26164;DHT22;13914;48.178;11.716;2023-03-01T10:42:46;2.70;89.50
26164;DHT22;13914;48.178;11.716;2023-03-01T10:50:50;2.90;90.20
26164;DHT22;13914;48.178;11.716;2023-03-01T10:53:48;3.00;89.80
26164;DHT22;13914;48.178;11.716;2023-03-01T10:56:15;3.00;88.10
26164;DHT22;13914;48.178;11.716;2023-03-01T11:06:31;3.20;89.00
26164;DHT22;13914;48.178;11.716;2023-03-01T11:08:57;3.20;88.90
26164;DHT22;13914;48.178;11.716;2023-03-01T11:11:42;3.30;90.20
26164;DHT22;13914;48.178;11.716;2023-03-01T11:14:25;3.40;89.40
26164;DHT22;13914;48.178;11.716;2023-03-01T11:20:03;3.50;89.60
26164;DHT22;13914;48.178;11.716;2023-03-01T11:22:53;3.60;89.00
26164;DHT22;13914;48.178;11.716;2023-03-01T11:25:24;3.70;87.80
26164;DHT22;13914;48.178;11.716;2023-03-01T11:27:53;3.70;88.00
26164;DHT22;13914;48.178;11.716;2023-03-01T11:30:29;3.80;89.20
26164;DHT22;13914;48.178;11.716;2023-03-01T11:33:24;3.90;89.50
26164;DHT22;13914;48.178;11.716;2023-03-01T11:36:07;4.00;89.40
26164;DHT22;13914;48.178;11.716;2023-03-01T11:38:39;4.10;89.40
26164;DHT22;13914;48.178;11.716;2023-03-01T11:41:06;4.20;89.00
26164;DHT22;13914;48.178;11.716;2023-03-01T11:43:59;4.20;88.10
26164;DHT22;13914;48.178;11.716;2023-03-01T11:55:02;4.60;89.30
26164;DHT22;13914;48.178;11.716;2023-03-01T12:03:32;4.80;88.50
26164;DHT22;13914;48.178;11.716;2023-03-01T12:27:42;5.40;87.30
26164;DHT22;13914;48.178;11.716;2023-03-01T12:49:56;6.10;87.30
26164;DHT22;13914;48.178;11.716;2023-03-01T12:52:41;6.20;87.30
26164;DHT22;13914;48.178;11.716;2023-03-01T12:55:25;6.30;88.50
26164;DHT22;13914;48.178;11.716;2023-03-01T13:01:16;6.50;85.60
26164;DHT22;13914;48.178;11.716;2023-03-01T13:04:06;6.60;87.50
26164;DHT22;13914;48.178;11.716;2023-03-01T13:12:52;6.80;85.30
26164;DHT22;13914;48.178;11.716;2023-03-01T13:20:58;7.10;85.70
26164;DHT22;13914;48.178;11.716;2023-03-01T13:23:37;7.20;87.70
26164;DHT22;13914;48.178;11.716;2023-03-01T13:28:56;7.40;86.50
26164;DHT22;13914;48.178;11.716;2023-03-01T13:33:53;7.50;86.10
26164;DHT22;13914;48.178;11.716;2023-03-01T13:49:58;8.00;87.90
26164;DHT22;13914;48.178;11.716;2023-03-01T13:54:59;8.30;90.00
26164;DHT22;13914;48.178;11.716;2023-03-01T13:57:33;8.30;89.90
26164;DHT22;13914;48.178;11.716;2023-03-01T14:00:00;8.30;85.50
26164;DHT22;13914;48.178;11.716;2023-03-01T14:02:26;8.30;85.80
26164;DHT22;13914;48.178;11.716;2023-03-01T14:05:01;8.40;87.30
26164;DHT22;13914;48.178;11.716;2023-03-01T14:07:28;8.40;87.90
26164;DHT22;13914;48.178;11.716;2023-03-01T14:10:00;8.50;88.80
26164;DHT22;13914;48.178;11.716;2023-03-01T14:12:49;8.60;88.90
26164;DHT22;13914;48.178;11.716;2023-03-01T14:15:31;8.70;89.40
26164;DHT22;13914;48.178;11.716;2023-03-01T14:20:43;8.80;89.60
26164;DHT22;13914;48.178;11.716;2023-03-01T14:23:19;8.90;89.50
26164;DHT22;13914;48.178;11.716;2023-03-01T14:25:50;8.90;88.50
26164;DHT22;13914;48.178;11.716;2023-03-01T14:30:54;8.80;85.10
26164;DHT22;13914;48.178;11.716;2023-03-01T14:33:29;8.70;86.20
26164;DHT22;13914;48.178;11.716;2023-03-01T14:36:09;8.80;84.80
26164;DHT22;13914;48.178;11.716;2023-03-01T14:38:40;8.80;86.60
26164;DHT22;13914;48.178;11.716;2023-03-01T14:41:37;8.80;84.30
26164;DHT22;13914;48.178;11.716;2023-03-01T14:44:11;8.70;84.90
26164;DHT22;13914;48.178;11.716;2023-03-01T14:46:41;8.80;85.00
26164;DHT22;13914;48.178;11.716;2023-03-01T14:49:16;8.80;85.30
26164;DHT22;13914;48.178;11.716;2023-03-01T14:52:01;8.80;85.80
26164;DHT22;13914;48.178;11.716;2023-03-01T14:57:25;8.80;85.00
26164;DHT22;13914;48.178;11.716;2023-03-01T14:59:54;8.70;83.30
26164;DHT22;13914;48.178;11.716;2023-03-01T15:02:23;8.60;82.00
26164;DHT22;13914;48.178;11.716;2023-03-01T15:04:56;8.60;85.30
26164;DHT22;13914;48.178;11.716;2023-03-01T15:07:29;8.60;84.70
26164;DHT22;13914;48.178;11.716;2023-03-01T15:09:59;8.60;85.00
26164;DHT22;13914;48.178;11.716;2023-03-01T15:14:55;8.60;86.30
26164;DHT22;13914;48.178;11.716;2023-03-01T15:17:36;8.60;84.00
26164;DHT22;13914;48.178;11.716;2023-03-01T15:20:18;8.60;84.40
26164;DHT22;13914;48.178;11.716;2023-03-01T15:22:47;8.50;85.80
26164;DHT22;13914;48.178;11.716;2023-03-01T15:25:18;8.60;85.70
26164;DHT22;13914;48.178;11.716;2023-03-01T15:27:46;8.50;83.40
26164;DHT22;13914;48.178;11.716;2023-03-01T15:30:23;8.40;84.30
26164;DHT22;13914;48.178;11.716;2023-03-01T15:35:46;8.30;84.80
26164;DHT22;13914;48.178;11.716;2023-03-01T15:40:53;8.30;85.00
26164;DHT22;13914;48.178;11.716;2023-03-01T15:46:17;8.20;82.60
26164;DHT22;13914;48.178;11.716;2023-03-01T15:48:52;8.10;83.20
26164;DHT22;13914;48.178;11.716;2023-03-01T15:51:29;8.10;83.60
26164;DHT22;13914;48.178;11.716;2023-03-01T15:54:05;8.10;85.00
26164;DHT22;13914;48.178;11.716;2023-03-01T15:56:36;8.00;85.00
26164;DHT22;13914;48.178;11.716;2023-03-01T15:59:02;8.00;85.00
26164;DHT22;13914;48.178;11.716;2023-03-01T16:01:28;8.00;84.80
26164;DHT22;13914;48.178;11.716;2023-03-01T16:03:54;7.90;84.70
26164;DHT22;13914;48.178;11.716;2023-03-01T16:06:22;7.90;85.30
26164;DHT22;13914;48.178;11.716;2023-03-01T16:08:47;7.90;84.60
26164;DHT22;13914;48.178;11.716;2023-03-01T16:11:18;7.90;84.20
26164;DHT22;13914;48.178;11.716;2023-03-01T16:13:45;7.80;83.80
26164;DHT22;13914;48.178;11.716;2023-03-01T16:16:12;7.70;84.80
26164;DHT22;13914;48.178;11.716;2023-03-01T16:18:42;7.70;84.40
26164;DHT22;13914;48.178;11.716;2023-03-01T16:21:18;7.60;84.80
26164;DHT22;13914;48.178;11.716;2023-03-01T16:23:46;7.60;85.10
26164;DHT22;13914;48.178;11.716;2023-03-01T16:26:12;7.60;84.70
26164;DHT22;13914;48.178;11.716;2023-03-01T16:28:40;7.50;84.80
26164;DHT22;13914;48.178;11.716;2023-03-01T16:31:10;7.50;85.20
26164;DHT22;13914;48.178;11.716;2023-03-01T16:33:36;7.50;85.20
26164;DHT22;13914;48.178;11.716;2023-03-01T16:36:10;7.40;84.50
26164;DHT22;13914;48.178;11.716;2023-03-01T16:38:38;7.30;84.10
26164;DHT22;13914;48.178;11.716;2023-03-01T16:41:04;7.30;84.50
26164;DHT22;13914;48.178;11.716;2023-03-01T16:43:31;7.20;84.90
26164;DHT22;13914;48.178;11.716;2023-03-01T16:45:57;7.20;85.20
26164;DHT22;13914;48.178;11.716;2023-03-01T16:48:24;7.20;84.90
26164;DHT22;13914;48.178;11.716;2023-03-01T16:50:58;7.10;84.10
26164;DHT22;13914;48.178;11.716;2023-03-01T16:53:25;7.10;84.10
26164;DHT22;13914;48.178;11.716;2023-03-01T16:55:56;7.00;84.20
26164;DHT22;13914;48.178;11.716;2023-03-01T16:58:22;7.00;85.00
26164;DHT22;13914;48.178;11.716;2023-03-01T17:00:51;6.90;84.90
26164;DHT22;13914;48.178;11.716;2023-03-01T17:03:22;6.90;85.20
26164;DHT22;13914;48.178;11.716;2023-03-01T17:05:49;6.80;85.20
26164;DHT22;13914;48.178;11.716;2023-03-01T17:08:15;6.80;85.20
26164;DHT22;13914;48.178;11.716;2023-03-01T17:10:42;6.80;85.20
26164;DHT22;13914;48.178;11.716;2023-03-01T17:13:10;6.70;85.30
26164;DHT22;13914;48.178;11.716;2023-03-01T17:15:41;6.70;85.20
26164;DHT22;13914;48.178;11.716;2023-03-01T17:18:07;6.60;85.60
26164;DHT22;13914;48.178;11.716;2023-03-01T17:20:34;6.60;84.80
26164;DHT22;13914;48.178;11.716;2023-03-01T17:23:00;6.50;85.50
26164;DHT22;13914;48.178;11.716;2023-03-01T17:25:26;6.50;85.80
26164;DHT22;13914;48.178;11.716;2023-03-01T17:27:52;6.40;85.60
26164;DHT22;13914;48.178;11.716;2023-03-01T17:30:18;6.40;85.60
26164;DHT22;13914;48.178;11.716;2023-03-01T17:32:44;6.30;85.70
26164;DHT22;13914;48.178;11.716;2023-03-01T17:35:10;6.30;85.70
26164;DHT22;13914;48.178;11.716;2023-03-01T17:37:37;6.20;85.40
26164;DHT22;13914;48.178;11.716;2023-03-01T17:40:05;6.20;85.40
26164;DHT22;13914;48.178;11.716;2023-03-01T17:42:32;6.10;85.50
26164;DHT22;13914;48.178;11.716;2023-03-01T17:44:58;6.10;85.50
26164;DHT22;13914;48.178;11.716;2023-03-01T17:47:25;6.00;85.50
26164;DHT22;13914;48.178;11.716;2023-03-01T17:49:50;5.90;85.90
26164;DHT22;13914;48.178;11.716;2023-03-01T17:52:16;5.90;86.30
26164;DHT22;13914;48.178;11.716;2023-03-01T17:54:42;5.90;86.50
26164;DHT22;13914;48.178;11.716;2023-03-01T17:57:08;5.90;86.50
26164;DHT22;13914;48.178;11.716;2023-03-01T17:59:37;5.80;86.60
26164;DHT22;13914;48.178;11.716;2023-03-01T18:02:03;5.80;86.50
26164;DHT22;13914;48.178;11.716;2023-03-01T18:04:28;5.70;86.50
26164;DHT22;13914;48.178;11.716;2023-03-01T18:06:54;5.70;86.60
26164;DHT22;13914;48.178;11.716;2023-03-01T18:09:20;5.70;86.60
26164;DHT22;13914;48.178;11.716;2023-03-01T18:11:46;5.60;86.50
26164;DHT22;13914;48.178;11.716;2023-03-01T18:14:12;5.60;86.70
26164;DHT22;13914;48.178;11.716;2023-03-01T18:16:38;5.50;86.80
26164;DHT22;13914;48.178;11.716;2023-03-01T18:19:04;5.50;86.90
26164;DHT22;13914;48.178;11.716;2023-03-01T18:21:30;5.50;87.00
26164;DHT22;13914;48.178;11.716;2023-03-01T18:23:57;5.40;87.20